sensor_id;sensor_type;location;lat;lon;timestamp;P1;durP1;ratioP1;P2;durP2;ratioP2
57846;SDS011;43675;50.030;21.952;2022-11-11T00:00:50;142.40;;;70.28;;
57846;SDS011;43675;50.030;21.952;2022-11-11T00:03:17;138.88;;;69.55;;
57846;SDS011;43675;50.030;21.952;2022-11-11T00:05:43;139.77;;;69.37;;
57846;SDS011;43675;50.030;21.952;2022-11-11T00:08:09;157.30;;;75.20;;
57846;SDS011;43675;50.030;21.952;2022-11-11T00:10:34;146.15;;;76.40;;
57846;SDS011;43675;50.030;21.952;2022-11-11T00:13:07;142.37;;;77.58;;
57846;SDS011;43675;50.030;21.952;2022-11-11T00:15:35;170.55;;;77.60;;
57846;SDS011;43675;50.030;21.952;2022-11-11T00:18:04;142.90;;;78.05;;
57846;SDS011;43675;50.030;21.952;2022-11-11T00:20:30;174.40;;;81.02;;
57846;SDS011;43675;50.030;21.952;2022-11-11T00:22:56;151.25;;;78.60;;
57846;SDS011;43675;50.030;21.952;2022-11-11T00:25:22;158.97;;;80.53;;
57846;SDS011;43675;50.030;21.952;2022-11-11T00:27:47;161.80;;;81.50;;
57846;SDS011;43675;50.030;21.952;2022-11-11T00:30:13;176.05;;;83.60;;
57846;SDS011;43675;50.030;21.952;2022-11-11T00:32:39;176.45;;;83.15;;
57846;SDS011;43675;50.030;21.952;2022-11-11T00:35:04;149.85;;;79.95;;
57846;SDS011;43675;50.030;21.952;2022-11-11T00:37:31;155.93;;;82.45;;
57846;SDS011;43675;50.030;21.952;2022-11-11T00:40:05;168.20;;;80.97;;
57846;SDS011;43675;50.030;21.952;2022-11-11T00:42:41;145.12;;;78.92;;
57846;SDS011;43675;50.030;21.952;2022-11-11T00:45:08;167.70;;;81.02;;
57846;SDS011;43675;50.030;21.952;2022-11-11T00:47:35;154.30;;;79.40;;
57846;SDS011;43675;50.030;21.952;2022-11-11T00:50:01;164.95;;;77.03;;
57846;SDS011;43675;50.030;21.952;2022-11-11T00:52:27;160.25;;;76.80;;
57846;SDS011;43675;50.030;21.952;2022-11-11T00:54:53;150.82;;;76.07;;
57846;SDS011;43675;50.030;21.952;2022-11-11T00:57:19;146.98;;;78.83;;
57846;SDS011;43675;50.030;21.952;2022-11-11T00:59:44;148.87;;;77.55;;
57846;SDS011;43675;50.030;21.952;2022-11-11T01:02:10;142.10;;;75.28;;
57846;SDS011;43675;50.030;21.952;2022-11-11T01:04:36;144.00;;;76.37;;
57846;SDS011;43675;50.030;21.952;2022-11-11T01:07:01;150.00;;;73.20;;
57846;SDS011;43675;50.030;21.952;2022-11-11T01:09:27;151.37;;;74.87;;
57846;SDS011;43675;50.030;21.952;2022-11-11T01:12:00;153.20;;;76.33;;
57846;SDS011;43675;50.030;21.952;2022-11-11T01:14:32;148.87;;;72.85;;
57846;SDS011;43675;50.030;21.952;2022-11-11T01:16:57;145.77;;;67.90;;
57846;SDS011;43675;50.030;21.952;2022-11-11T01:19:23;133.20;;;63.75;;
57846;SDS011;43675;50.030;21.952;2022-11-11T01:21:55;145.68;;;69.70;;
57846;SDS011;43675;50.030;21.952;2022-11-11T01:24:21;154.12;;;66.82;;
57846;SDS011;43675;50.030;21.952;2022-11-11T01:26:47;141.18;;;66.70;;
57846;SDS011;43675;50.030;21.952;2022-11-11T01:29:13;155.25;;;69.62;;
57846;SDS011;43675;50.030;21.952;2022-11-11T01:31:38;139.60;;;70.87;;
57846;SDS011;43675;50.030;21.952;2022-11-11T01:34:04;162.45;;;72.15;;
57846;SDS011;43675;50.030;21.952;2022-11-11T01:36:30;157.43;;;71.02;;
57846;SDS011;43675;50.030;21.952;2022-11-11T01:38:56;159.27;;;69.03;;
57846;SDS011;43675;50.030;21.952;2022-11-11T01:41:28;186.55;;;72.15;;
57846;SDS011;43675;50.030;21.952;2022-11-11T01:46:46;171.62;;;75.50;;
57846;SDS011;43675;50.030;21.952;2022-11-11T01:49:33;177.17;;;76.20;;
57846;SDS011;43675;50.030;21.952;2022-11-11T01:52:23;167.25;;;78.07;;
57846;SDS011;43675;50.030;21.952;2022-11-11T01:54:59;192.55;;;76.17;;
57846;SDS011;43675;50.030;21.952;2022-11-11T01:57:35;197.80;;;76.77;;
57846;SDS011;43675;50.030;21.952;2022-11-11T02:00:07;185.28;;;75.30;;
57846;SDS011;43675;50.030;21.952;2022-11-11T02:02:38;171.10;;;75.35;;
57846;SDS011;43675;50.030;21.952;2022-11-11T02:05:07;179.95;;;74.17;;
57846;SDS011;43675;50.030;21.952;2022-11-11T02:07:35;205.80;;;77.80;;
57846;SDS011;43675;50.030;21.952;2022-11-11T02:10:02;169.05;;;74.37;;
57846;SDS011;43675;50.030;21.952;2022-11-11T02:12:31;174.65;;;79.00;;
57846;SDS011;43675;50.030;21.952;2022-11-11T02:14:57;173.68;;;76.37;;
57846;SDS011;43675;50.030;21.952;2022-11-11T02:17:25;169.47;;;73.80;;
57846;SDS011;43675;50.030;21.952;2022-11-11T02:19:57;180.12;;;76.80;;
57846;SDS011;43675;50.030;21.952;2022-11-11T02:25:07;193.93;;;78.05;;
57846;SDS011;43675;50.030;21.952;2022-11-11T02:27:35;185.63;;;76.97;;
57846;SDS011;43675;50.030;21.952;2022-11-11T02:30:04;187.70;;;73.92;;
57846;SDS011;43675;50.030;21.952;2022-11-11T02:32:31;179.53;;;78.60;;
57846;SDS011;43675;50.030;21.952;2022-11-11T02:34:57;165.03;;;76.40;;
57846;SDS011;43675;50.030;21.952;2022-11-11T02:37:23;169.50;;;84.10;;
57846;SDS011;43675;50.030;21.952;2022-11-11T02:39:58;186.18;;;82.72;;
57846;SDS011;43675;50.030;21.952;2022-11-11T02:42:25;177.78;;;78.17;;
57846;SDS011;43675;50.030;21.952;2022-11-11T02:44:58;170.82;;;80.10;;
57846;SDS011;43675;50.030;21.952;2022-11-11T02:47:24;155.45;;;79.97;;
57846;SDS011;43675;50.030;21.952;2022-11-11T02:49:50;169.50;;;81.22;;
57846;SDS011;43675;50.030;21.952;2022-11-11T02:52:16;162.95;;;80.40;;
57846;SDS011;43675;50.030;21.952;2022-11-11T02:54:41;187.40;;;83.87;;
57846;SDS011;43675;50.030;21.952;2022-11-11T02:57:13;160.52;;;79.72;;
57846;SDS011;43675;50.030;21.952;2022-11-11T02:59:40;176.55;;;79.60;;
57846;SDS011;43675;50.030;21.952;2022-11-11T03:02:06;169.37;;;85.92;;
57846;SDS011;43675;50.030;21.952;2022-11-11T03:04:32;177.05;;;81.75;;
57846;SDS011;43675;50.030;21.952;2022-11-11T03:06:58;160.37;;;81.42;;
57846;SDS011;43675;50.030;21.952;2022-11-11T03:09:24;163.43;;;79.25;;
57846;SDS011;43675;50.030;21.952;2022-11-11T03:11:56;164.65;;;78.75;;
57846;SDS011;43675;50.030;21.952;2022-11-11T03:14:22;147.93;;;73.57;;
57846;SDS011;43675;50.030;21.952;2022-11-11T03:16:48;149.07;;;72.53;;
57846;SDS011;43675;50.030;21.952;2022-11-11T03:19:14;154.93;;;72.27;;
57846;SDS011;43675;50.030;21.952;2022-11-11T03:21:40;157.37;;;77.10;;
57846;SDS011;43675;50.030;21.952;2022-11-11T03:24:05;143.17;;;74.45;;
57846;SDS011;43675;50.030;21.952;2022-11-11T03:26:31;152.10;;;83.25;;
57846;SDS011;43675;50.030;21.952;2022-11-11T03:28:57;155.80;;;84.75;;
57846;SDS011;43675;50.030;21.952;2022-11-11T03:31:23;150.25;;;85.42;;
57846;SDS011;43675;50.030;21.952;2022-11-11T03:33:49;141.80;;;80.53;;
57846;SDS011;43675;50.030;21.952;2022-11-11T03:36:16;157.18;;;85.25;;
57846;SDS011;43675;50.030;21.952;2022-11-11T03:38:41;158.00;;;89.83;;
57846;SDS011;43675;50.030;21.952;2022-11-11T03:41:07;143.10;;;83.00;;
57846;SDS011;43675;50.030;21.952;2022-11-11T03:43:39;140.70;;;85.22;;
57846;SDS011;43675;50.030;21.952;2022-11-11T03:46:04;154.93;;;87.95;;
57846;SDS011;43675;50.030;21.952;2022-11-11T03:48:36;130.52;;;77.95;;
57846;SDS011;43675;50.030;21.952;2022-11-11T03:51:02;133.90;;;80.28;;
57846;SDS011;43675;50.030;21.952;2022-11-11T03:53:27;152.17;;;83.10;;
57846;SDS011;43675;50.030;21.952;2022-11-11T03:56:00;137.05;;;82.72;;
57846;SDS011;43675;50.030;21.952;2022-11-11T03:58:25;137.72;;;83.87;;
57846;SDS011;43675;50.030;21.952;2022-11-11T04:00:51;153.40;;;85.67;;
57846;SDS011;43675;50.030;21.952;2022-11-11T04:03:23;146.53;;;82.10;;
57846;SDS011;43675;50.030;21.952;2022-11-11T04:05:49;147.80;;;83.85;;
57846;SDS011;43675;50.030;21.952;2022-11-11T04:08:16;155.25;;;84.05;;
57846;SDS011;43675;50.030;21.952;2022-11-11T04:10:43;128.20;;;80.92;;
57846;SDS011;43675;50.030;21.952;2022-11-11T04:13:08;145.07;;;82.95;;
57846;SDS011;43675;50.030;21.952;2022-11-11T04:15:41;136.95;;;86.10;;
57846;SDS011;43675;50.030;21.952;2022-11-11T04:18:07;137.75;;;82.15;;
57846;SDS011;43675;50.030;21.952;2022-11-11T04:20:33;136.88;;;81.02;;
57846;SDS011;43675;50.030;21.952;2022-11-11T04:22:58;135.55;;;77.35;;
57846;SDS011;43675;50.030;21.952;2022-11-11T04:25:24;143.17;;;77.67;;
57846;SDS011;43675;50.030;21.952;2022-11-11T04:27:49;132.55;;;79.15;;
57846;SDS011;43675;50.030;21.952;2022-11-11T04:30:15;131.65;;;77.17;;
57846;SDS011;43675;50.030;21.952;2022-11-11T04:32:43;127.85;;;76.20;;
57846;SDS011;43675;50.030;21.952;2022-11-11T04:35:10;125.18;;;76.85;;
57846;SDS011;43675;50.030;21.952;2022-11-11T04:37:44;123.02;;;76.42;;
57846;SDS011;43675;50.030;21.952;2022-11-11T04:40:11;121.62;;;72.75;;
57846;SDS011;43675;50.030;21.952;2022-11-11T04:42:37;117.93;;;75.05;;
57846;SDS011;43675;50.030;21.952;2022-11-11T04:45:04;130.55;;;74.87;;
57846;SDS011;43675;50.030;21.952;2022-11-11T04:47:31;116.77;;;72.95;;
57846;SDS011;43675;50.030;21.952;2022-11-11T04:50:03;120.47;;;78.75;;
57846;SDS011;43675;50.030;21.952;2022-11-11T04:52:30;123.35;;;77.80;;
57846;SDS011;43675;50.030;21.952;2022-11-11T04:54:56;112.68;;;74.90;;
57846;SDS011;43675;50.030;21.952;2022-11-11T04:57:23;107.85;;;70.97;;
57846;SDS011;43675;50.030;21.952;2022-11-11T04:59:49;115.77;;;75.90;;
57846;SDS011;43675;50.030;21.952;2022-11-11T05:02:15;104.10;;;66.12;;
57846;SDS011;43675;50.030;21.952;2022-11-11T05:04:40;110.12;;;67.15;;
57846;SDS011;43675;50.030;21.952;2022-11-11T05:07:06;101.00;;;65.92;;
57846;SDS011;43675;50.030;21.952;2022-11-11T05:09:32;96.05;;;61.10;;
57846;SDS011;43675;50.030;21.952;2022-11-11T05:11:57;95.90;;;64.82;;
57846;SDS011;43675;50.030;21.952;2022-11-11T05:14:23;95.95;;;65.47;;
57846;SDS011;43675;50.030;21.952;2022-11-11T05:16:56;100.05;;;65.25;;
57846;SDS011;43675;50.030;21.952;2022-11-11T05:19:22;93.52;;;64.37;;
57846;SDS011;43675;50.030;21.952;2022-11-11T05:21:49;88.62;;;64.37;;
57846;SDS011;43675;50.030;21.952;2022-11-11T05:24:17;100.58;;;68.45;;
57846;SDS011;43675;50.030;21.952;2022-11-11T05:26:43;92.78;;;66.45;;
57846;SDS011;43675;50.030;21.952;2022-11-11T05:29:09;98.47;;;65.50;;
57846;SDS011;43675;50.030;21.952;2022-11-11T05:31:34;87.50;;;63.35;;
57846;SDS011;43675;50.030;21.952;2022-11-11T05:34:00;92.75;;;62.00;;
57846;SDS011;43675;50.030;21.952;2022-11-11T05:36:26;87.47;;;62.67;;
57846;SDS011;43675;50.030;21.952;2022-11-11T05:38:51;83.78;;;59.33;;
57846;SDS011;43675;50.030;21.952;2022-11-11T05:41:17;87.67;;;58.55;;
57846;SDS011;43675;50.030;21.952;2022-11-11T05:43:43;84.17;;;59.10;;
57846;SDS011;43675;50.030;21.952;2022-11-11T05:46:08;81.92;;;58.02;;
57846;SDS011;43675;50.030;21.952;2022-11-11T05:48:34;83.35;;;58.48;;
57846;SDS011;43675;50.030;21.952;2022-11-11T05:51:06;84.07;;;58.45;;
57846;SDS011;43675;50.030;21.952;2022-11-11T05:53:38;78.28;;;56.85;;
57846;SDS011;43675;50.030;21.952;2022-11-11T05:56:04;74.20;;;54.83;;
57846;SDS011;43675;50.030;21.952;2022-11-11T05:58:29;72.92;;;55.75;;
57846;SDS011;43675;50.030;21.952;2022-11-11T06:00:55;74.77;;;52.13;;
57846;SDS011;43675;50.030;21.952;2022-11-11T06:03:21;72.42;;;53.78;;
57846;SDS011;43675;50.030;21.952;2022-11-11T06:05:46;69.27;;;54.27;;
57846;SDS011;43675;50.030;21.952;2022-11-11T06:08:12;67.95;;;49.63;;
57846;SDS011;43675;50.030;21.952;2022-11-11T06:10:44;62.27;;;49.65;;
57846;SDS011;43675;50.030;21.952;2022-11-11T06:13:10;65.67;;;51.28;;
57846;SDS011;43675;50.030;21.952;2022-11-11T06:15:36;59.10;;;48.80;;
57846;SDS011;43675;50.030;21.952;2022-11-11T06:18:03;62.80;;;51.18;;
57846;SDS011;43675;50.030;21.952;2022-11-11T06:20:29;60.12;;;49.23;;
57846;SDS011;43675;50.030;21.952;2022-11-11T06:22:55;57.43;;;45.43;;
57846;SDS011;43675;50.030;21.952;2022-11-11T06:25:22;57.93;;;45.85;;
57846;SDS011;43675;50.030;21.952;2022-11-11T06:27:49;58.28;;;43.90;;
57846;SDS011;43675;50.030;21.952;2022-11-11T06:30:15;53.80;;;44.18;;
57846;SDS011;43675;50.030;21.952;2022-11-11T06:32:41;55.73;;;43.60;;
57846;SDS011;43675;50.030;21.952;2022-11-11T06:35:07;53.00;;;42.55;;
57846;SDS011;43675;50.030;21.952;2022-11-11T06:37:33;50.38;;;42.70;;
57846;SDS011;43675;50.030;21.952;2022-11-11T06:39:58;52.35;;;42.62;;
57846;SDS011;43675;50.030;21.952;2022-11-11T06:42:24;49.58;;;38.98;;
57846;SDS011;43675;50.030;21.952;2022-11-11T06:44:50;47.40;;;38.67;;
57846;SDS011;43675;50.030;21.952;2022-11-11T06:47:15;51.13;;;38.60;;
57846;SDS011;43675;50.030;21.952;2022-11-11T06:49:48;45.78;;;37.23;;
57846;SDS011;43675;50.030;21.952;2022-11-11T06:52:14;46.05;;;34.50;;
57846;SDS011;43675;50.030;21.952;2022-11-11T06:54:39;37.48;;;33.42;;
57846;SDS011;43675;50.030;21.952;2022-11-11T06:57:05;39.75;;;32.00;;
57846;SDS011;43675;50.030;21.952;2022-11-11T06:59:30;42.83;;;33.13;;
57846;SDS011;43675;50.030;21.952;2022-11-11T07:01:56;41.63;;;34.40;;
57846;SDS011;43675;50.030;21.952;2022-11-11T07:04:29;39.80;;;31.55;;
57846;SDS011;43675;50.030;21.952;2022-11-11T07:06:54;39.98;;;31.12;;
57846;SDS011;43675;50.030;21.952;2022-11-11T07:09:20;43.95;;;32.95;;
57846;SDS011;43675;50.030;21.952;2022-11-11T07:11:46;36.28;;;32.40;;
57846;SDS011;43675;50.030;21.952;2022-11-11T07:14:11;38.20;;;29.72;;
57846;SDS011;43675;50.030;21.952;2022-11-11T07:16:37;39.30;;;30.05;;
57846;SDS011;43675;50.030;21.952;2022-11-11T07:19:02;38.98;;;29.75;;
57846;SDS011;43675;50.030;21.952;2022-11-11T07:21:34;38.00;;;29.95;;
57846;SDS011;43675;50.030;21.952;2022-11-11T07:24:00;33.80;;;29.25;;
57846;SDS011;43675;50.030;21.952;2022-11-11T07:26:26;35.38;;;29.57;;
57846;SDS011;43675;50.030;21.952;2022-11-11T07:28:51;36.42;;;29.72;;
57846;SDS011;43675;50.030;21.952;2022-11-11T07:31:17;34.38;;;28.20;;
57846;SDS011;43675;50.030;21.952;2022-11-11T07:33:43;31.87;;;27.90;;
57846;SDS011;43675;50.030;21.952;2022-11-11T07:36:08;36.83;;;29.32;;
57846;SDS011;43675;50.030;21.952;2022-11-11T07:38:34;31.73;;;28.07;;
57846;SDS011;43675;50.030;21.952;2022-11-11T07:40:59;34.73;;;28.92;;
57846;SDS011;43675;50.030;21.952;2022-11-11T07:43:25;32.33;;;28.12;;
57846;SDS011;43675;50.030;21.952;2022-11-11T07:45:53;31.30;;;26.73;;
57846;SDS011;43675;50.030;21.952;2022-11-11T07:48:18;33.10;;;26.62;;
57846;SDS011;43675;50.030;21.952;2022-11-11T07:50:51;29.72;;;26.52;;
57846;SDS011;43675;50.030;21.952;2022-11-11T07:53:17;31.90;;;25.35;;
57846;SDS011;43675;50.030;21.952;2022-11-11T07:55:43;28.62;;;24.85;;
57846;SDS011;43675;50.030;21.952;2022-11-11T07:58:16;32.40;;;26.23;;
57846;SDS011;43675;50.030;21.952;2022-11-11T08:00:41;28.25;;;25.35;;
57846;SDS011;43675;50.030;21.952;2022-11-11T08:03:07;31.12;;;25.82;;
57846;SDS011;43675;50.030;21.952;2022-11-11T08:05:32;31.12;;;25.85;;
57846;SDS011;43675;50.030;21.952;2022-11-11T08:08:02;33.78;;;25.97;;
57846;SDS011;43675;50.030;21.952;2022-11-11T08:10:33;30.25;;;26.02;;
57846;SDS011;43675;50.030;21.952;2022-11-11T08:12:59;28.27;;;25.23;;
57846;SDS011;43675;50.030;21.952;2022-11-11T08:15:26;28.77;;;25.62;;
57846;SDS011;43675;50.030;21.952;2022-11-11T08:17:51;27.15;;;24.25;;
57846;SDS011;43675;50.030;21.952;2022-11-11T08:20:17;30.17;;;23.25;;
57846;SDS011;43675;50.030;21.952;2022-11-11T08:22:43;25.32;;;22.73;;
57846;SDS011;43675;50.030;21.952;2022-11-11T08:25:09;29.55;;;23.80;;
57846;SDS011;43675;50.030;21.952;2022-11-11T08:27:36;26.95;;;22.75;;
57846;SDS011;43675;50.030;21.952;2022-11-11T08:30:03;27.58;;;23.35;;
57846;SDS011;43675;50.030;21.952;2022-11-11T08:32:30;26.90;;;22.73;;
57846;SDS011;43675;50.030;21.952;2022-11-11T08:35:02;25.23;;;22.62;;
57846;SDS011;43675;50.030;21.952;2022-11-11T08:37:28;28.57;;;22.93;;
57846;SDS011;43675;50.030;21.952;2022-11-11T08:39:53;26.40;;;23.60;;
57846;SDS011;43675;50.030;21.952;2022-11-11T08:42:19;24.77;;;22.52;;
57846;SDS011;43675;50.030;21.952;2022-11-11T08:44:45;26.73;;;23.92;;
57846;SDS011;43675;50.030;21.952;2022-11-11T08:47:17;27.17;;;23.57;;
57846;SDS011;43675;50.030;21.952;2022-11-11T08:49:43;27.70;;;24.18;;
57846;SDS011;43675;50.030;21.952;2022-11-11T08:52:16;28.83;;;25.88;;
57846;SDS011;43675;50.030;21.952;2022-11-11T08:54:42;26.50;;;23.80;;
57846;SDS011;43675;50.030;21.952;2022-11-11T08:57:07;26.52;;;23.67;;
57846;SDS011;43675;50.030;21.952;2022-11-11T08:59:33;27.45;;;24.18;;
57846;SDS011;43675;50.030;21.952;2022-11-11T09:01:59;26.70;;;24.18;;
57846;SDS011;43675;50.030;21.952;2022-11-11T09:04:24;29.32;;;24.07;;
57846;SDS011;43675;50.030;21.952;2022-11-11T09:06:50;25.92;;;23.05;;
57846;SDS011;43675;50.030;21.952;2022-11-11T09:09:15;26.52;;;23.42;;
57846;SDS011;43675;50.030;21.952;2022-11-11T09:11:41;25.70;;;23.20;;
57846;SDS011;43675;50.030;21.952;2022-11-11T09:14:07;25.50;;;23.05;;
57846;SDS011;43675;50.030;21.952;2022-11-11T09:16:32;25.95;;;23.12;;
57846;SDS011;43675;50.030;21.952;2022-11-11T09:18:58;26.15;;;23.55;;
57846;SDS011;43675;50.030;21.952;2022-11-11T09:21:24;25.23;;;22.55;;
57846;SDS011;43675;50.030;21.952;2022-11-11T09:23:49;25.08;;;22.37;;
57846;SDS011;43675;50.030;21.952;2022-11-11T09:26:15;25.50;;;23.00;;
57846;SDS011;43675;50.030;21.952;2022-11-11T09:28:41;24.18;;;21.77;;
57846;SDS011;43675;50.030;21.952;2022-11-11T09:31:06;23.80;;;21.10;;
57846;SDS011;43675;50.030;21.952;2022-11-11T09:33:32;25.15;;;20.95;;
57846;SDS011;43675;50.030;21.952;2022-11-11T09:35:57;23.40;;;20.88;;
57846;SDS011;43675;50.030;21.952;2022-11-11T09:38:23;26.80;;;21.55;;
57846;SDS011;43675;50.030;21.952;2022-11-11T09:41:00;22.52;;;20.20;;
57846;SDS011;43675;50.030;21.952;2022-11-11T09:43:56;22.85;;;19.80;;
57846;SDS011;43675;50.030;21.952;2022-11-11T09:49:20;23.05;;;20.05;;
57846;SDS011;43675;50.030;21.952;2022-11-11T09:54:53;22.15;;;19.98;;
57846;SDS011;43675;50.030;21.952;2022-11-11T09:59:59;21.75;;;19.55;;
57846;SDS011;43675;50.030;21.952;2022-11-11T10:07:59;21.05;;;18.90;;
57846;SDS011;43675;50.030;21.952;2022-11-11T10:13:47;21.50;;;19.07;;
57846;SDS011;43675;50.030;21.952;2022-11-11T10:16:20;20.68;;;18.50;;
57846;SDS011;43675;50.030;21.952;2022-11-11T10:22:26;20.12;;;18.00;;
57846;SDS011;43675;50.030;21.952;2022-11-11T10:28:30;19.42;;;17.73;;
57846;SDS011;43675;50.030;21.952;2022-11-11T10:30:58;20.27;;;18.27;;
57846;SDS011;43675;50.030;21.952;2022-11-11T10:33:27;20.80;;;17.73;;
57846;SDS011;43675;50.030;21.952;2022-11-11T10:36:16;20.50;;;18.40;;
57846;SDS011;43675;50.030;21.952;2022-11-11T10:39:01;20.88;;;18.67;;
57846;SDS011;43675;50.030;21.952;2022-11-11T10:41:28;20.05;;;18.12;;
57846;SDS011;43675;50.030;21.952;2022-11-11T10:43:55;19.87;;;17.95;;
57846;SDS011;43675;50.030;21.952;2022-11-11T10:46:22;18.77;;;16.77;;
57846;SDS011;43675;50.030;21.952;2022-11-11T10:49:08;22.25;;;20.10;;
57846;SDS011;43675;50.030;21.952;2022-11-11T10:51:41;22.80;;;20.40;;
57846;SDS011;43675;50.030;21.952;2022-11-11T10:54:20;17.82;;;16.15;;
57846;SDS011;43675;50.030;21.952;2022-11-11T10:56:56;17.35;;;15.75;;
57846;SDS011;43675;50.030;21.952;2022-11-11T11:02:20;18.23;;;16.60;;
57846;SDS011;43675;50.030;21.952;2022-11-11T11:05:09;19.73;;;17.67;;
57846;SDS011;43675;50.030;21.952;2022-11-11T11:07:39;21.27;;;19.17;;
57846;SDS011;43675;50.030;21.952;2022-11-11T11:10:14;20.85;;;18.95;;
57846;SDS011;43675;50.030;21.952;2022-11-11T11:12:45;21.80;;;19.73;;
57846;SDS011;43675;50.030;21.952;2022-11-11T11:15:16;21.52;;;19.40;;
57846;SDS011;43675;50.030;21.952;2022-11-11T11:18:01;20.95;;;18.55;;
57846;SDS011;43675;50.030;21.952;2022-11-11T11:20:31;18.98;;;17.00;;
57846;SDS011;43675;50.030;21.952;2022-11-11T11:22:57;19.87;;;18.07;;
57846;SDS011;43675;50.030;21.952;2022-11-11T11:25:23;19.82;;;17.75;;
57846;SDS011;43675;50.030;21.952;2022-11-11T11:27:51;19.40;;;17.07;;
57846;SDS011;43675;50.030;21.952;2022-11-11T11:30:21;18.90;;;16.97;;
57846;SDS011;43675;50.030;21.952;2022-11-11T11:32:59;17.73;;;16.02;;
57846;SDS011;43675;50.030;21.952;2022-11-11T11:35:34;18.73;;;16.62;;
57846;SDS011;43675;50.030;21.952;2022-11-11T11:38:05;18.13;;;16.47;;
57846;SDS011;43675;50.030;21.952;2022-11-11T11:40:46;20.23;;;18.30;;
57846;SDS011;43675;50.030;21.952;2022-11-11T11:45:58;21.62;;;18.25;;
57846;SDS011;43675;50.030;21.952;2022-11-11T11:48:33;20.17;;;18.25;;
57846;SDS011;43675;50.030;21.952;2022-11-11T11:54:15;18.02;;;16.42;;
57846;SDS011;43675;50.030;21.952;2022-11-11T11:56:52;18.27;;;16.77;;
57846;SDS011;43675;50.030;21.952;2022-11-11T11:59:29;18.02;;;16.27;;
57846;SDS011;43675;50.030;21.952;2022-11-11T12:02:10;18.27;;;16.52;;
57846;SDS011;43675;50.030;21.952;2022-11-11T12:16:15;18.67;;;16.77;;
57846;SDS011;43675;50.030;21.952;2022-11-11T12:21:23;18.17;;;16.37;;
57846;SDS011;43675;50.030;21.952;2022-11-11T12:26:56;18.27;;;16.57;;
57846;SDS011;43675;50.030;21.952;2022-11-11T12:32:00;16.93;;;15.32;;
57846;SDS011;43675;50.030;21.952;2022-11-11T12:37:56;18.57;;;16.85;;
57846;SDS011;43675;50.030;21.952;2022-11-11T12:45:42;17.85;;;16.35;;
57846;SDS011;43675;50.030;21.952;2022-11-11T12:51:15;18.60;;;16.50;;
57846;SDS011;43675;50.030;21.952;2022-11-11T12:53:43;17.73;;;15.93;;
57846;SDS011;43675;50.030;21.952;2022-11-11T12:56:29;20.52;;;16.75;;
57846;SDS011;43675;50.030;21.952;2022-11-11T13:02:10;17.37;;;15.80;;
57846;SDS011;43675;50.030;21.952;2022-11-11T13:04:55;18.48;;;16.30;;
57846;SDS011;43675;50.030;21.952;2022-11-11T13:08:02;18.80;;;16.95;;
57846;SDS011;43675;50.030;21.952;2022-11-11T13:15:54;18.27;;;16.55;;
57846;SDS011;43675;50.030;21.952;2022-11-11T13:18:25;18.48;;;16.55;;
57846;SDS011;43675;50.030;21.952;2022-11-11T13:24:00;18.60;;;16.62;;
57846;SDS011;43675;50.030;21.952;2022-11-11T13:29:22;17.65;;;15.85;;
57846;SDS011;43675;50.030;21.952;2022-11-11T13:31:34;17.23;;;15.53;;
57846;SDS011;43675;50.030;21.952;2022-11-11T13:34:03;18.10;;;16.20;;
57846;SDS011;43675;50.030;21.952;2022-11-11T13:36:34;17.95;;;16.10;;
57846;SDS011;43675;50.030;21.952;2022-11-11T13:39:01;19.20;;;17.10;;
57846;SDS011;43675;50.030;21.952;2022-11-11T13:41:28;19.50;;;17.45;;
57846;SDS011;43675;50.030;21.952;2022-11-11T13:43:57;19.02;;;17.02;;
57846;SDS011;43675;50.030;21.952;2022-11-11T13:49:07;19.85;;;17.80;;
57846;SDS011;43675;50.030;21.952;2022-11-11T13:51:40;23.05;;;18.73;;
57846;SDS011;43675;50.030;21.952;2022-11-11T13:54:23;22.90;;;19.90;;
57846;SDS011;43675;50.030;21.952;2022-11-11T13:59:52;23.70;;;21.20;;
57846;SDS011;43675;50.030;21.952;2022-11-11T14:02:34;22.98;;;19.98;;
57846;SDS011;43675;50.030;21.952;2022-11-11T14:12:53;31.57;;;25.88;;
57846;SDS011;43675;50.030;21.952;2022-11-11T14:15:39;58.73;;;36.30;;
57846;SDS011;43675;50.030;21.952;2022-11-11T14:20:50;45.92;;;33.90;;
57846;SDS011;43675;50.030;21.952;2022-11-11T14:26:23;30.55;;;25.90;;
57846;SDS011;43675;50.030;21.952;2022-11-11T14:28:35;41.23;;;29.85;;
57846;SDS011;43675;50.030;21.952;2022-11-11T14:33:55;53.63;;;34.10;;
57846;SDS011;43675;50.030;21.952;2022-11-11T14:42:02;97.10;;;56.60;;
57846;SDS011;43675;50.030;21.952;2022-11-11T14:52:20;88.65;;;47.85;;
57846;SDS011;43675;50.030;21.952;2022-11-11T14:57:38;51.18;;;31.90;;
57846;SDS011;43675;50.030;21.952;2022-11-11T15:00:18;46.73;;;32.25;;
57846;SDS011;43675;50.030;21.952;2022-11-11T15:02:50;41.18;;;28.23;;
57846;SDS011;43675;50.030;21.952;2022-11-11T15:08:21;44.48;;;28.20;;
57846;SDS011;43675;50.030;21.952;2022-11-11T15:30:52;103.32;;;59.03;;
57846;SDS011;43675;50.030;21.952;2022-11-11T15:38:51;122.17;;;66.12;;
57846;SDS011;43675;50.030;21.952;2022-11-11T15:41:24;117.00;;;62.83;;
57846;SDS011;43675;50.030;21.952;2022-11-11T15:43:52;110.68;;;61.18;;
57846;SDS011;43675;50.030;21.952;2022-11-11T15:46:21;111.37;;;58.28;;
57846;SDS011;43675;50.030;21.952;2022-11-11T15:48:48;99.62;;;55.90;;
57846;SDS011;43675;50.030;21.952;2022-11-11T15:53:52;89.22;;;50.12;;
57846;SDS011;43675;50.030;21.952;2022-11-11T15:56:28;87.22;;;48.23;;
57846;SDS011;43675;50.030;21.952;2022-11-11T15:58:55;75.80;;;45.92;;
57846;SDS011;43675;50.030;21.952;2022-11-11T16:01:22;73.90;;;45.60;;
57846;SDS011;43675;50.030;21.952;2022-11-11T16:03:52;78.33;;;44.75;;
57846;SDS011;43675;50.030;21.952;2022-11-11T16:06:19;72.10;;;45.23;;
57846;SDS011;43675;50.030;21.952;2022-11-11T16:08:46;61.77;;;43.17;;
57846;SDS011;43675;50.030;21.952;2022-11-11T16:11:20;60.38;;;42.40;;
57846;SDS011;43675;50.030;21.952;2022-11-11T16:13:47;59.83;;;42.60;;
57846;SDS011;43675;50.030;21.952;2022-11-11T16:16:20;54.77;;;39.25;;
57846;SDS011;43675;50.030;21.952;2022-11-11T16:18:49;51.98;;;38.13;;
57846;SDS011;43675;50.030;21.952;2022-11-11T16:21:24;50.33;;;36.75;;
57846;SDS011;43675;50.030;21.952;2022-11-11T16:23:58;54.95;;;40.55;;
57846;SDS011;43675;50.030;21.952;2022-11-11T16:26:31;57.83;;;42.53;;
57846;SDS011;43675;50.030;21.952;2022-11-11T16:28:58;48.10;;;39.70;;
57846;SDS011;43675;50.030;21.952;2022-11-11T16:37:03;57.50;;;45.23;;
57846;SDS011;43675;50.030;21.952;2022-11-11T16:39:31;66.85;;;47.90;;
57846;SDS011;43675;50.030;21.952;2022-11-11T16:42:02;58.00;;;43.98;;
57846;SDS011;43675;50.030;21.952;2022-11-11T16:47:08;57.30;;;41.70;;
57846;SDS011;43675;50.030;21.952;2022-11-11T16:49:37;61.08;;;44.27;;
57846;SDS011;43675;50.030;21.952;2022-11-11T16:52:10;67.58;;;43.80;;
57846;SDS011;43675;50.030;21.952;2022-11-11T16:54:46;60.88;;;44.20;;